createdAt,value
2018-12-06T00:00:32.335Z,11.57
2018-12-06T00:02:59.830Z,9.03
2018-12-06T00:05:27.321Z,10.03
2018-12-06T00:08:14.160Z,11.40
2018-12-06T00:10:42.484Z,12.27
2018-12-06T00:13:10.580Z,12.00
2018-12-06T00:15:38.197Z,12.23
2018-12-06T00:18:05.688Z,7.47
2018-12-06T00:20:33.172Z,8.87
2018-12-06T00:23:00.688Z,8.90
2018-12-06T00:25:28.181Z,10.57
2018-12-06T00:27:55.668Z,10.10
2018-12-06T00:30:35.067Z,8.97
2018-12-06T00:33:03.088Z,9.97
2018-12-06T00:35:30.594Z,10.90
2018-12-06T00:37:58.202Z,10.53
2018-12-06T00:40:25.676Z,10.53
2018-12-06T00:42:53.219Z,10.00
2018-12-06T00:45:20.803Z,10.07
2018-12-06T00:47:48.289Z,13.17
2018-12-06T00:50:16.361Z,9.73
2018-12-06T00:52:44.088Z,10.80
2018-12-06T00:55:11.627Z,10.93
2018-12-06T00:57:39.113Z,9.37
2018-12-06T01:00:08.141Z,11.03
2018-12-06T01:02:35.719Z,10.57
2018-12-06T01:05:03.345Z,10.60
2018-12-06T01:07:30.981Z,12.30
2018-12-06T01:09:58.492Z,11.60
2018-12-06T01:12:26.135Z,9.93
2018-12-06T01:14:53.708Z,11.73
2018-12-06T01:17:21.197Z,11.27
2018-12-06T01:19:48.679Z,7.87
2018-12-06T01:22:16.371Z,10.40
2018-12-06T01:24:43.851Z,13.00
2018-12-06T01:27:11.333Z,11.07
2018-12-06T01:29:38.961Z,11.40
2018-12-06T01:32:06.447Z,12.33
2018-12-06T01:34:33.931Z,13.40
2018-12-06T01:37:01.445Z,13.70
2018-12-06T01:39:29.057Z,11.30
2018-12-06T01:41:56.541Z,13.17
2018-12-06T01:44:24.064Z,10.87
2018-12-06T01:46:51.547Z,9.63
2018-12-06T01:49:19.052Z,12.17
2018-12-06T01:51:46.582Z,9.80
2018-12-06T01:54:14.061Z,9.80
2018-12-06T01:56:41.557Z,9.50
2018-12-06T01:59:09.087Z,7.53
2018-12-06T02:01:36.590Z,11.03
2018-12-06T02:04:04.138Z,11.53
2018-12-06T02:06:31.655Z,12.33
2018-12-06T02:08:59.131Z,12.53
2018-12-06T02:11:26.616Z,12.23
2018-12-06T02:13:54.135Z,9.17
2018-12-06T02:16:21.623Z,9.70
2018-12-06T02:18:49.111Z,10.10
2018-12-06T02:21:16.621Z,12.13
2018-12-06T02:23:44.105Z,11.50
2018-12-06T02:26:11.589Z,11.47
2018-12-06T02:28:39.158Z,10.93
2018-12-06T02:31:06.652Z,11.53
2018-12-06T02:33:34.149Z,14.13
2018-12-06T02:36:01.728Z,13.60
2018-12-06T02:38:29.237Z,10.33
2018-12-06T02:40:56.753Z,11.13
2018-12-06T02:43:24.309Z,11.90
2018-12-06T02:45:51.795Z,10.90
2018-12-06T02:48:19.301Z,10.17
2018-12-06T02:50:46.922Z,10.87
2018-12-06T02:53:14.410Z,10.93
2018-12-06T02:55:41.930Z,13.00
2018-12-06T02:58:09.413Z,14.87
2018-12-06T03:00:36.927Z,11.53
2018-12-06T03:03:04.648Z,14.20
2018-12-06T03:05:32.260Z,8.57
2018-12-06T03:07:59.732Z,9.13
2018-12-06T03:10:27.316Z,9.20
2018-12-06T03:12:54.811Z,13.60
2018-12-06T03:15:22.427Z,11.47
2018-12-06T03:17:49.948Z,12.27
2018-12-06T03:20:17.454Z,11.30
2018-12-06T03:22:44.941Z,9.93
2018-12-06T03:25:12.471Z,12.70
2018-12-06T03:27:39.985Z,12.13
2018-12-06T03:30:07.709Z,12.10
2018-12-06T03:32:35.327Z,11.73
2018-12-06T03:35:02.976Z,12.37
2018-12-06T03:37:30.459Z,10.97
2018-12-06T03:39:58.075Z,13.57
2018-12-06T03:42:25.577Z,14.13
2018-12-06T03:44:53.176Z,12.33
2018-12-06T03:47:20.752Z,13.23
2018-12-06T03:49:48.247Z,11.27
2018-12-06T03:52:15.740Z,15.03
2018-12-06T03:54:43.269Z,11.17
2018-12-06T03:57:10.770Z,11.03
2018-12-06T03:59:38.291Z,11.87
2018-12-06T04:02:05.851Z,14.03
2018-12-06T04:04:33.340Z,12.37
2018-12-06T04:07:00.839Z,16.93
2018-12-06T04:09:28.677Z,12.40
2018-12-06T04:11:56.502Z,15.40
2018-12-06T04:14:24.120Z,13.60
2018-12-06T04:16:51.683Z,17.97
2018-12-06T04:19:19.213Z,11.87
2018-12-06T04:21:46.848Z,17.13
2018-12-06T04:24:14.381Z,15.83
2018-12-06T04:26:41.879Z,15.90
2018-12-06T04:29:09.396Z,15.90
2018-12-06T04:31:36.912Z,16.10
2018-12-06T04:34:04.580Z,13.00
2018-12-06T04:36:32.091Z,13.80
2018-12-06T04:38:59.634Z,14.63
2018-12-06T04:41:27.124Z,19.17
2018-12-06T04:43:54.646Z,13.87
2018-12-06T04:46:22.248Z,15.27
2018-12-06T04:48:49.747Z,17.13
2018-12-06T04:51:17.268Z,17.93
2018-12-06T04:53:45.369Z,15.43
2018-12-06T04:56:12.943Z,14.07
2018-12-06T04:58:40.469Z,14.13
2018-12-06T05:01:07.988Z,13.13
2018-12-06T05:03:35.489Z,15.67
2018-12-06T05:06:02.984Z,16.63
2018-12-06T05:08:30.572Z,16.13
2018-12-06T05:10:58.055Z,14.30
2018-12-06T05:13:25.563Z,13.30
2018-12-06T05:15:53.124Z,9.10
2018-12-06T05:18:20.677Z,14.00
2018-12-06T05:20:48.197Z,13.20
2018-12-06T05:23:15.727Z,13.20
2018-12-06T05:25:43.246Z,13.07
2018-12-06T05:28:10.731Z,13.07
2018-12-06T05:30:38.259Z,14.27
2018-12-06T05:33:06.217Z,14.80
2018-12-06T05:35:33.722Z,12.90
2018-12-06T05:38:01.232Z,13.43
2018-12-06T05:40:28.946Z,13.77
2018-12-06T05:42:56.462Z,8.83
2018-12-06T05:45:23.995Z,9.70
2018-12-06T05:47:51.480Z,15.33
2018-12-06T05:50:19.051Z,14.77
2018-12-06T05:52:46.576Z,19.13
2018-12-06T05:55:14.096Z,16.50
2018-12-06T05:57:41.633Z,14.50
2018-12-06T06:00:09.356Z,14.80
2018-12-06T06:02:36.852Z,19.00
2018-12-06T06:05:05.355Z,19.47
2018-12-06T06:07:32.879Z,19.80
2018-12-06T06:10:00.414Z,19.30
2018-12-06T06:12:27.904Z,23.87
2018-12-06T06:14:55.419Z,20.23
2018-12-06T06:17:22.922Z,18.07
2018-12-06T06:19:50.414Z,20.33
2018-12-06T06:22:18.020Z,23.10
2018-12-06T06:24:45.507Z,20.97
2018-12-06T06:27:13.008Z,17.03
2018-12-06T06:29:40.531Z,20.67
2018-12-06T06:32:08.053Z,20.03
2018-12-06T06:34:35.739Z,19.83
2018-12-06T06:37:03.239Z,18.37
2018-12-06T06:39:30.780Z,17.67
2018-12-06T06:41:58.318Z,18.07
2018-12-06T06:44:25.955Z,17.73
2018-12-06T06:46:53.460Z,19.37
2018-12-06T06:49:20.966Z,16.83
2018-12-06T06:51:48.460Z,18.47
2018-12-06T06:54:15.971Z,18.73
2018-12-06T06:56:43.568Z,19.63
2018-12-06T06:59:11.107Z,26.97
2018-12-06T07:01:38.667Z,22.37
2018-12-06T07:04:06.176Z,22.97
2018-12-06T07:06:33.736Z,25.87
2018-12-06T07:09:01.248Z,29.17
2018-12-06T07:11:28.749Z,27.83
2018-12-06T07:13:56.265Z,25.30
2018-12-06T07:16:23.825Z,29.70
2018-12-06T07:18:51.313Z,32.17
2018-12-06T07:21:18.838Z,31.00
2018-12-06T07:23:46.320Z,32.77
2018-12-06T07:26:13.848Z,33.60
2018-12-06T07:28:41.380Z,34.10
2018-12-06T07:31:08.889Z,36.20
2018-12-06T07:33:36.389Z,35.43
2018-12-06T07:36:05.327Z,33.53
2018-12-06T07:38:32.843Z,40.30
2018-12-06T07:41:00.361Z,40.10
2018-12-06T07:43:29.386Z,31.50
2018-12-06T07:45:58.858Z,30.03
2018-12-06T07:48:26.584Z,26.03
2018-12-06T07:50:54.192Z,31.47
2018-12-06T07:53:21.692Z,35.97
2018-12-06T07:55:49.253Z,25.73
2018-12-06T07:58:16.797Z,31.37
2018-12-06T08:00:44.615Z,39.43
2018-12-06T08:03:12.243Z,41.80
2018-12-06T08:05:39.928Z,34.50
2018-12-06T08:08:07.495Z,41.37
2018-12-06T08:10:34.989Z,25.07
2018-12-06T08:13:02.575Z,44.83
2018-12-06T08:15:30.071Z,38.27
2018-12-06T08:17:57.574Z,36.87
2018-12-06T08:20:25.106Z,29.33
2018-12-06T08:22:53.313Z,36.70
2018-12-06T08:25:20.825Z,37.73
2018-12-06T08:27:49.771Z,37.63
2018-12-06T08:30:19.146Z,32.80
2018-12-06T08:32:49.893Z,34.03
2018-12-06T08:35:17.556Z,32.50
2018-12-06T08:37:45.117Z,32.47
2018-12-06T08:40:12.670Z,37.23
2018-12-06T08:42:45.756Z,36.80
2018-12-06T08:45:09.812Z,25.93
2018-12-06T08:47:37.309Z,38.40
2018-12-06T08:50:05.258Z,35.30
2018-12-06T08:52:32.767Z,31.03
2018-12-06T08:55:00.286Z,32.57
2018-12-06T08:57:27.863Z,31.57
2018-12-06T08:59:55.351Z,29.30
2018-12-06T09:02:22.864Z,33.70
2018-12-06T09:04:51.456Z,35.97
2018-12-06T09:07:19.026Z,29.10
2018-12-06T09:09:46.629Z,32.93
2018-12-06T09:12:14.168Z,25.90
2018-12-06T09:14:41.660Z,32.67
2018-12-06T09:17:09.184Z,32.00
2018-12-06T09:19:36.753Z,24.13
2018-12-06T09:22:04.473Z,28.63
2018-12-06T09:24:32.007Z,27.37
2018-12-06T09:26:59.552Z,28.93
2018-12-06T09:29:27.050Z,24.80
2018-12-06T09:31:54.553Z,30.83
2018-12-06T09:34:22.096Z,23.63
2018-12-06T09:36:49.619Z,31.23
2018-12-06T09:39:17.194Z,28.03
2018-12-06T09:41:44.764Z,31.80
2018-12-06T09:44:12.258Z,26.13
2018-12-06T09:46:39.740Z,26.33
2018-12-06T09:49:07.339Z,29.40
2018-12-06T09:51:34.901Z,29.73
2018-12-06T09:54:02.454Z,29.50
2018-12-06T09:56:29.974Z,27.30
2018-12-06T09:58:57.460Z,19.87
2018-12-06T10:01:24.965Z,25.67
2018-12-06T10:03:52.561Z,27.57
2018-12-06T10:06:20.089Z,34.93
2018-12-06T10:08:47.587Z,26.00
2018-12-06T10:11:15.115Z,19.80
2018-12-06T10:13:42.621Z,22.43
2018-12-06T10:16:10.136Z,22.60
2018-12-06T10:18:38.611Z,22.53
2018-12-06T10:21:06.110Z,29.37
2018-12-06T10:23:33.601Z,18.03
2018-12-06T10:26:01.164Z,24.17
2018-12-06T10:28:28.657Z,16.70
2018-12-06T10:30:56.287Z,17.13
2018-12-06T10:33:23.809Z,22.53
2018-12-06T10:35:51.375Z,21.13
2018-12-06T10:38:18.885Z,22.13
2018-12-06T10:40:46.444Z,19.07
2018-12-06T10:43:14.212Z,21.43
2018-12-06T10:45:41.845Z,22.37
2018-12-06T10:48:09.401Z,21.07
2018-12-06T10:50:36.891Z,17.10
2018-12-06T10:53:04.938Z,17.17
2018-12-06T10:55:32.493Z,17.23
2018-12-06T10:57:59.988Z,18.20
2018-12-06T11:00:33.059Z,16.40
2018-12-06T11:06:09.772Z,13.03
2018-12-06T11:08:37.267Z,15.00
2018-12-06T11:11:04.785Z,14.17
2018-12-06T11:13:32.305Z,17.27
2018-12-06T11:15:59.796Z,18.47
2018-12-06T11:18:27.341Z,12.37
2018-12-06T11:20:54.862Z,16.13
2018-12-06T11:23:22.354Z,12.10
2018-12-06T11:25:49.949Z,16.33
2018-12-06T11:28:17.509Z,18.00
2018-12-06T11:30:45.002Z,12.77
2018-12-06T11:33:12.523Z,12.83
2018-12-06T11:35:40.854Z,17.73
2018-12-06T11:38:08.720Z,15.03
2018-12-06T11:40:36.254Z,13.00
2018-12-06T11:43:03.749Z,13.80
2018-12-06T11:45:31.257Z,16.70
2018-12-06T11:47:58.776Z,17.93
2018-12-06T11:50:26.358Z,17.50
2018-12-06T11:52:53.876Z,14.03
2018-12-06T11:55:21.450Z,15.33
2018-12-06T11:57:49.002Z,19.53
2018-12-06T12:00:16.502Z,18.33
2018-12-06T12:02:44.056Z,17.90
2018-12-06T12:05:11.557Z,13.03
2018-12-06T12:07:39.040Z,20.80
2018-12-06T12:10:06.636Z,21.20
2018-12-06T12:12:34.192Z,17.80
2018-12-06T12:15:01.758Z,14.53
2018-12-06T12:17:29.387Z,20.47
2018-12-06T12:19:56.969Z,17.63
2018-12-06T12:22:24.507Z,17.43
2018-12-06T12:24:52.036Z,18.23
2018-12-06T12:27:19.602Z,17.43
2018-12-06T12:29:47.111Z,19.60
2018-12-06T12:32:14.666Z,15.23
2018-12-06T12:34:42.168Z,13.70
2018-12-06T12:37:09.683Z,20.07
2018-12-06T12:39:37.212Z,16.53
2018-12-06T12:42:04.831Z,18.40
2018-12-06T12:44:32.728Z,16.62
2018-12-06T12:47:00.419Z,20.40
2018-12-06T12:49:27.936Z,19.70
2018-12-06T12:51:55.428Z,20.50
2018-12-06T12:54:22.941Z,21.83
2018-12-06T12:56:50.637Z,21.53
2018-12-06T12:59:18.212Z,17.47
2018-12-06T13:01:45.758Z,17.53
2018-12-06T13:04:13.272Z,27.43
2018-12-06T13:06:40.776Z,16.07
2018-12-06T13:09:08.359Z,18.43
2018-12-06T13:11:35.856Z,23.23
2018-12-06T13:14:03.579Z,22.27
2018-12-06T13:16:31.797Z,17.27
2018-12-06T13:18:59.288Z,23.37
2018-12-06T13:21:26.803Z,20.27
2018-12-06T13:23:54.331Z,16.40
2018-12-06T13:26:21.815Z,20.60
2018-12-06T13:28:49.307Z,21.33
2018-12-06T13:31:16.872Z,16.63
2018-12-06T13:33:44.604Z,21.17
2018-12-06T13:36:12.096Z,19.07
2018-12-06T13:38:39.781Z,18.47
2018-12-06T13:41:07.292Z,18.10
2018-12-06T13:43:34.836Z,19.33
2018-12-06T13:46:02.417Z,13.80
2018-12-06T13:48:29.997Z,21.63
2018-12-06T13:50:57.496Z,17.30
2018-12-06T13:53:25.024Z,18.17
2018-12-06T13:55:52.545Z,12.43
2018-12-06T13:58:20.021Z,18.37
2018-12-06T14:00:47.734Z,14.03
2018-12-06T14:03:15.348Z,17.70
2018-12-06T14:05:42.866Z,10.43
2018-12-06T14:08:10.379Z,19.63
2018-12-06T14:10:37.936Z,16.37
2018-12-06T14:13:05.461Z,17.90
2018-12-06T14:15:32.983Z,12.83
2018-12-06T14:18:00.651Z,15.57
2018-12-06T14:20:28.327Z,12.60
2018-12-06T14:22:55.837Z,11.60
2018-12-06T14:25:23.331Z,12.60
2018-12-06T14:27:50.828Z,14.37
2018-12-06T14:30:18.493Z,12.43
2018-12-06T14:32:45.987Z,9.83
2018-12-06T14:35:13.489Z,10.47
2018-12-06T14:37:41.008Z,11.17
2018-12-06T14:40:08.560Z,8.63
2018-12-06T14:42:36.051Z,12.60
2018-12-06T14:45:05.231Z,13.67
2018-12-06T14:47:32.935Z,11.15
2018-12-06T14:50:00.503Z,9.53
2018-12-06T14:52:28.066Z,11.43
2018-12-06T14:54:55.574Z,10.43
2018-12-06T14:57:23.063Z,8.40
2018-12-06T14:59:50.590Z,10.90
2018-12-06T15:02:18.088Z,9.40
2018-12-06T15:04:45.620Z,9.13
2018-12-06T15:07:13.129Z,12.13
2018-12-06T15:09:40.645Z,8.57
2018-12-06T15:12:08.155Z,10.33
2018-12-06T15:14:35.664Z,10.07
2018-12-06T15:17:03.154Z,9.03
2018-12-06T15:19:30.681Z,9.67
2018-12-06T15:21:58.180Z,7.20
2018-12-06T15:24:25.735Z,9.03
2018-12-06T15:26:53.269Z,8.90
2018-12-06T15:29:20.779Z,8.63
2018-12-06T15:31:48.277Z,8.87
2018-12-06T15:34:15.837Z,9.77
2018-12-06T15:36:43.326Z,10.50
2018-12-06T15:39:10.873Z,12.10
2018-12-06T15:41:38.408Z,9.97
2018-12-06T15:44:06.652Z,10.87
2018-12-06T15:46:34.193Z,10.97
2018-12-06T15:49:01.722Z,11.60
2018-12-06T15:51:29.215Z,10.80
2018-12-06T15:53:56.704Z,7.03
2018-12-06T15:56:24.224Z,10.20
2018-12-06T15:58:51.783Z,9.07
2018-12-06T16:01:19.292Z,9.90
2018-12-06T16:03:46.810Z,8.27
2018-12-06T16:06:14.302Z,10.10
2018-12-06T16:08:41.892Z,11.83
2018-12-06T16:11:09.400Z,8.73
2018-12-06T16:13:36.950Z,11.30
2018-12-06T16:16:04.519Z,9.00
2018-12-06T16:18:32.016Z,7.83
2018-12-06T16:20:59.520Z,8.07
2018-12-06T16:23:27.048Z,8.73
2018-12-06T16:25:54.549Z,7.90
2018-12-06T16:28:22.052Z,8.03
2018-12-06T16:30:49.577Z,7.27
2018-12-06T16:33:17.075Z,9.97
2018-12-06T16:35:48.247Z,7.93
2018-12-06T16:38:15.768Z,8.97
2018-12-06T16:40:43.261Z,8.63
2018-12-06T16:43:10.761Z,8.37
2018-12-06T16:45:38.283Z,7.23
2018-12-06T16:48:05.876Z,6.60
2018-12-06T16:50:33.465Z,7.40
2018-12-06T16:53:00.967Z,8.93
2018-12-06T16:55:28.507Z,8.43
2018-12-06T16:57:56.375Z,6.73
2018-12-06T17:00:23.996Z,6.63
2018-12-06T17:02:51.523Z,8.10
2018-12-06T17:05:19.007Z,7.90
2018-12-06T17:07:46.734Z,7.73
2018-12-06T17:10:14.507Z,7.23
2018-12-06T17:12:42.011Z,7.00
2018-12-06T17:15:09.652Z,7.20
2018-12-06T17:17:37.160Z,6.37
2018-12-06T17:20:06.185Z,6.47
2018-12-06T17:22:33.743Z,5.70
2018-12-06T17:25:01.227Z,6.27
2018-12-06T17:27:28.724Z,6.53
2018-12-06T17:29:56.296Z,5.50
2018-12-06T17:32:23.883Z,5.97
2018-12-06T17:34:51.610Z,5.40
2018-12-06T17:37:19.155Z,5.97
2018-12-06T17:39:46.644Z,5.63
2018-12-06T17:42:14.180Z,5.07
2018-12-06T17:44:42.397Z,6.60
2018-12-06T17:47:10.184Z,7.23
2018-12-06T17:49:37.960Z,6.00
2018-12-06T17:52:05.720Z,6.80
2018-12-06T17:54:33.657Z,6.33
2018-12-06T17:57:01.178Z,6.50
2018-12-06T17:59:28.756Z,6.53
2018-12-06T18:01:56.243Z,6.87
2018-12-06T18:04:23.806Z,5.20
2018-12-06T18:06:51.322Z,6.27
2018-12-06T18:09:18.840Z,7.17
2018-12-06T18:11:46.346Z,7.50
2018-12-06T18:14:13.891Z,6.20
2018-12-06T18:16:41.390Z,6.97
2018-12-06T18:19:08.898Z,7.33
2018-12-06T18:21:36.436Z,6.40
2018-12-06T18:24:04.072Z,8.70
2018-12-06T18:26:31.567Z,6.17
2018-12-06T18:28:59.102Z,6.60
2018-12-06T18:31:26.588Z,5.90
2018-12-06T18:33:54.087Z,7.40
2018-12-06T18:36:21.610Z,6.73
2018-12-06T18:38:49.099Z,5.30
2018-12-06T18:41:20.180Z,6.23
2018-12-06T18:43:47.735Z,6.00
2018-12-06T18:46:15.294Z,5.80
2018-12-06T18:48:42.923Z,6.20
2018-12-06T18:51:10.786Z,5.83
2018-12-06T18:53:39.070Z,6.10
2018-12-06T18:56:06.978Z,5.57
2018-12-06T18:58:34.765Z,5.63
2018-12-06T19:01:02.292Z,6.93
2018-12-06T19:03:30.067Z,5.10
2018-12-06T19:05:57.635Z,4.27
2018-12-06T19:08:25.428Z,5.53
2018-12-06T19:10:53.248Z,5.83
2018-12-06T19:13:20.832Z,6.20
2018-12-06T19:15:49.020Z,5.03
2018-12-06T19:18:17.171Z,5.60
2018-12-06T19:20:44.714Z,5.90
2018-12-06T19:23:12.227Z,5.93
2018-12-06T19:25:39.720Z,5.07
2018-12-06T19:28:07.308Z,5.23
2018-12-06T19:30:34.802Z,6.50
2018-12-06T19:33:03.334Z,4.70
2018-12-06T19:35:31.237Z,5.87
2018-12-06T19:37:59.120Z,4.20
2018-12-06T19:40:26.923Z,5.43
2018-12-06T19:42:54.525Z,6.10
2018-12-06T19:45:22.284Z,5.17
2018-12-06T19:47:50.073Z,5.90
2018-12-06T19:50:17.918Z,6.63
2018-12-06T19:52:45.741Z,6.20
2018-12-06T19:55:13.556Z,6.50
2018-12-06T19:57:41.424Z,5.43
2018-12-06T20:00:10.261Z,6.37
2018-12-06T20:02:39.080Z,5.87
2018-12-06T20:05:06.836Z,5.60
2018-12-06T20:07:34.607Z,5.70
2018-12-06T20:10:02.189Z,6.70
2018-12-06T20:12:29.724Z,5.60
2018-12-06T20:14:57.498Z,6.97
2018-12-06T20:17:25.060Z,6.93
2018-12-06T20:19:52.555Z,5.80
2018-12-06T20:22:20.048Z,6.20
2018-12-06T20:24:47.704Z,6.73
2018-12-06T20:27:15.501Z,7.37
2018-12-06T20:29:43.310Z,6.80
2018-12-06T20:32:14.608Z,7.30
2018-12-06T20:34:40.673Z,6.80
2018-12-06T20:37:08.263Z,7.30
2018-12-06T20:39:36.570Z,7.13
2018-12-06T20:42:04.106Z,7.00
2018-12-06T20:44:31.668Z,5.37
2018-12-06T20:46:59.156Z,8.13
2018-12-06T20:49:26.677Z,6.00
2018-12-06T20:51:54.597Z,6.37
2018-12-06T20:54:22.108Z,7.07
2018-12-06T20:56:52.339Z,6.53
2018-12-06T20:59:19.832Z,4.47
2018-12-06T21:01:47.333Z,5.37
2018-12-06T21:04:14.891Z,4.10
2018-12-06T21:06:42.479Z,6.63
2018-12-06T21:09:10.099Z,7.17
2018-12-06T21:11:37.659Z,7.53
2018-12-06T21:14:05.140Z,5.67
2018-12-06T21:16:32.655Z,7.30
2018-12-06T21:19:00.202Z,7.00
2018-12-06T21:21:27.688Z,4.83
2018-12-06T21:23:55.196Z,6.50
2018-12-06T21:26:22.782Z,7.77
2018-12-06T21:28:50.268Z,5.27
2018-12-06T21:31:17.757Z,7.90
2018-12-06T21:33:45.329Z,6.37
2018-12-06T21:36:12.816Z,9.60
2018-12-06T21:38:40.308Z,7.50
2018-12-06T21:41:07.811Z,8.50
2018-12-06T21:43:35.300Z,8.83
2018-12-06T21:46:02.882Z,6.63
2018-12-06T21:48:30.990Z,8.67
2018-12-06T21:50:58.481Z,11.07
2018-12-06T21:53:25.989Z,7.17
2018-12-06T21:55:53.473Z,6.03
2018-12-06T21:58:20.980Z,9.03
2018-12-06T22:00:48.546Z,9.70
2018-12-06T22:03:16.084Z,8.37
2018-12-06T22:05:43.570Z,7.77
2018-12-06T22:08:11.072Z,8.93
2018-12-06T22:10:38.621Z,6.63
2018-12-06T22:13:06.104Z,9.63
2018-12-06T22:15:33.643Z,8.37
2018-12-06T22:18:01.171Z,7.33
2018-12-06T22:20:28.693Z,12.60
2018-12-06T22:22:56.208Z,11.33
2018-12-06T22:25:23.691Z,10.90
2018-12-06T22:27:51.587Z,10.50
2018-12-06T22:30:19.152Z,9.67
2018-12-06T22:32:46.646Z,7.60
2018-12-06T22:35:14.142Z,10.43
2018-12-06T22:37:41.654Z,11.03
2018-12-06T22:40:09.224Z,9.03
2018-12-06T22:42:36.718Z,13.33
2018-12-06T22:45:18.827Z,9.53
2018-12-06T22:47:46.320Z,11.50
2018-12-06T22:50:13.869Z,9.90
2018-12-06T22:52:41.380Z,8.43
2018-12-06T22:55:09.144Z,7.37
2018-12-06T22:57:36.627Z,6.83
2018-12-06T23:00:07.291Z,7.73
2018-12-06T23:02:34.832Z,9.80
2018-12-06T23:05:02.379Z,9.97
2018-12-06T23:07:29.968Z,10.63
2018-12-06T23:09:57.467Z,10.17
2018-12-06T23:12:25.023Z,8.80
2018-12-06T23:14:52.631Z,8.57
2018-12-06T23:17:20.150Z,9.60
2018-12-06T23:19:47.639Z,9.70
2018-12-06T23:22:15.270Z,7.83
2018-12-06T23:24:42.931Z,8.67
2018-12-06T23:27:10.424Z,8.90
2018-12-06T23:29:37.924Z,10.30
2018-12-06T23:32:05.412Z,11.10
2018-12-06T23:34:33.081Z,8.10
2018-12-06T23:37:00.599Z,9.80
2018-12-06T23:39:28.091Z,12.10
2018-12-06T23:41:55.599Z,9.27
2018-12-06T23:44:23.096Z,9.23
2018-12-06T23:46:50.620Z,11.10
2018-12-06T23:49:18.111Z,10.17
2018-12-06T23:51:45.604Z,8.23
2018-12-06T23:54:13.149Z,8.30
2018-12-06T23:56:40.656Z,7.37
2018-12-06T23:59:08.203Z,6.73
